SBPK/PET METAR and TAF weather

Enter ICAO airport designator
Station Type Date Time Source
SBPK METAR 2018/12/09 20:45 UTC NOAA

SBPK 092045Z 07012KT CAVOK 26/17 Q1012


Station Type Date Time Source
SBPK Decoded METAR 2018/12/09 20:45 UTC NOAA

Pelotas, Brazil (SBPK) 31-52S 052-21W 13M
Dec 09, 2018 - 03:45 PM EST / 2018.12.09 2045 UTC
Wind: from the ENE (070 degrees) at 14 MPH (12 KT):0
Visibility: greater than 7 mile(s):0
Temperature: 78 F (26 C)
Dew Point: 62 F (17 C)
Relative Humidity: 57%
Pressure (altimeter): 29.88 in. Hg (1012 hPa)
ob: SBPK 092045Z 07012KT CAVOK 26/17 Q1012
cycle: 21

Station Type Date Time Source
SBPK TAF 2018/12/10 06:18 UTC NOAA

TAF TAF SBPK 100200Z 1006/1106 34006KT CAVOK TN20/1006Z TX34/1018Z
BECMG 1012/1014 28009KT 9999 FEW035
BECMG 1020/1022 08006KT CAVOK
RMK PDW


Example: see airport list